GIA317 WARR-WIII
Flight info
| Callsign | GIA317 |
|---|---|
| Flight time | 1h 8m |
| Altitude | 36000 |
| Route | LASEM T2 KALUT T6 KURUS |
| Aircraft | B738/M-SDE2E3FGHIRWXY/LB1 |
Departure
| Time | 2026-04-28 05:52 |
|---|---|
| Airport | Juanda International Airport (WARR) |
Arrival
| Time | 2026-04-28 07:00 |
|---|---|
| Airport | Soekarno-Hatta International Airport (WIII) |
| Time | Latitude | Longitude | Altitude | Speed | Heading |
|---|---|---|---|---|---|
| 2026-04-28 05:36 | -7.37602 | 112.79533 | 8 ft | 0 kts | 9° |
| 2026-04-28 05:41 | -7.37610 | 112.79531 | 8 ft | 2 kts | 9° |
| 2026-04-28 05:41 | -7.37625 | 112.79529 | 8 ft | 2 kts | 9° |
| 2026-04-28 05:41 | -7.37640 | 112.79527 | 8 ft | 2 kts | 9° |
| 2026-04-28 05:41 | -7.37655 | 112.79524 | 8 ft | 2 kts | 9° |
| 2026-04-28 05:42 | -7.37664 | 112.79523 | 8 ft | 1 kts | 9° |
| 2026-04-28 05:42 | -7.37679 | 112.79524 | 8 ft | 2 kts | 332° |
| 2026-04-28 05:42 | -7.37691 | 112.79533 | 8 ft | 2 kts | 300° |
| 2026-04-28 05:42 | -7.37694 | 112.79542 | 8 ft | 0 kts | 281° |
| 2026-04-28 05:43 | -7.37695 | 112.79549 | 8 ft | 0 kts | 279° |
| 2026-04-28 05:45 | -7.37695 | 112.79547 | 8 ft | 1 kts | 279° |
| 2026-04-28 05:45 | -7.37692 | 112.79528 | 8 ft | 4 kts | 279° |
| 2026-04-28 05:45 | -7.37686 | 112.79485 | 8 ft | 7 kts | 271° |
| 2026-04-28 05:45 | -7.37725 | 112.79445 | 8 ft | 10 kts | 191° |
| 2026-04-28 05:46 | -7.37809 | 112.79432 | 8 ft | 13 kts | 188° |
| 2026-04-28 05:46 | -7.37904 | 112.79404 | 8 ft | 14 kts | 221° |
| 2026-04-28 05:46 | -7.37908 | 112.79305 | 8 ft | 15 kts | 278° |
| 2026-04-28 05:46 | -7.37892 | 112.79194 | 8 ft | 16 kts | 279° |
| 2026-04-28 05:47 | -7.37872 | 112.79073 | 8 ft | 18 kts | 279° |
| 2026-04-28 05:47 | -7.37850 | 112.78943 | 9 ft | 19 kts | 279° |
| 2026-04-28 05:47 | -7.37828 | 112.78812 | 11 ft | 19 kts | 279° |
| 2026-04-28 05:47 | -7.37806 | 112.78675 | 11 ft | 20 kts | 279° |
| 2026-04-28 05:48 | -7.37781 | 112.78526 | 11 ft | 22 kts | 278° |
| 2026-04-28 05:48 | -7.37757 | 112.78371 | 11 ft | 23 kts | 279° |
| 2026-04-28 05:48 | -7.37730 | 112.78204 | 11 ft | 24 kts | 279° |
| 2026-04-28 05:48 | -7.37699 | 112.78027 | 11 ft | 26 kts | 280° |
| 2026-04-28 05:49 | -7.37670 | 112.77846 | 11 ft | 26 kts | 279° |
| 2026-04-28 05:49 | -7.37642 | 112.77674 | 11 ft | 23 kts | 279° |
| 2026-04-28 05:49 | -7.37621 | 112.77531 | 11 ft | 15 kts | 278° |
| 2026-04-28 05:49 | -7.37611 | 112.77433 | 11 ft | 10 kts | 261° |
| 2026-04-28 05:50 | -7.37644 | 112.77389 | 11 ft | 0 kts | 204° |
| 2026-04-28 05:50 | -7.37648 | 112.77387 | 11 ft | 3 kts | 203° |
| 2026-04-28 05:50 | -7.37686 | 112.77376 | 11 ft | 5 kts | 190° |
| 2026-04-28 05:51 | -7.37729 | 112.77369 | 11 ft | 6 kts | 188° |
| 2026-04-28 05:51 | -7.37767 | 112.77386 | 11 ft | 6 kts | 121° |
| 2026-04-28 05:51 | -7.37779 | 112.77428 | 11 ft | 6 kts | 99° |
| 2026-04-28 05:51 | -7.37805 | 112.77576 | 11 ft | 54 kts | 99° |
| 2026-04-28 05:52 | -7.37908 | 112.78215 | 11 ft | 127 kts | 99° |
| 2026-04-28 05:52 | -7.38090 | 112.79307 | 68 ft | 180 kts | 100° |
| 2026-04-28 05:52 | -7.38313 | 112.80572 | 762 ft | 188 kts | 98° |
| 2026-04-28 05:52 | -7.38519 | 112.81882 | 1520 ft | 197 kts | 98° |
| 2026-04-28 05:53 | -7.38742 | 112.83253 | 2121 ft | 205 kts | 99° |
| 2026-04-28 05:53 | -7.38985 | 112.84701 | 2614 ft | 218 kts | 98° |
| 2026-04-28 05:53 | -7.39252 | 112.86266 | 3037 ft | 239 kts | 98° |
| 2026-04-28 05:53 | -7.39386 | 112.87967 | 3659 ft | 250 kts | 82° |
| 2026-04-28 05:54 | -7.38744 | 112.89610 | 4239 ft | 263 kts | 54° |
| 2026-04-28 05:54 | -7.37369 | 112.90848 | 4980 ft | 271 kts | 31° |
| 2026-04-28 05:54 | -7.35608 | 112.91575 | 5760 ft | 278 kts | 15° |
| 2026-04-28 05:54 | -7.33670 | 112.91675 | 6558 ft | 284 kts | 355° |
| 2026-04-28 05:55 | -7.31727 | 112.91305 | 7357 ft | 288 kts | 349° |
| 2026-04-28 05:55 | -7.29782 | 112.90833 | 8120 ft | 291 kts | 348° |
| 2026-04-28 05:55 | -7.27792 | 112.90369 | 8842 ft | 293 kts | 350° |
| 2026-04-28 05:55 | -7.25782 | 112.89945 | 9510 ft | 296 kts | 351° |
| 2026-04-28 05:56 | -7.23770 | 112.89545 | 10180 ft | 298 kts | 351° |
| 2026-04-28 05:56 | -7.21682 | 112.89140 | 10631 ft | 310 kts | 351° |
| 2026-04-28 05:56 | -7.19517 | 112.88720 | 11033 ft | 323 kts | 351° |
| 2026-04-28 05:56 | -7.17273 | 112.88137 | 11338 ft | 341 kts | 342° |
| 2026-04-28 05:57 | -7.15139 | 112.86993 | 11627 ft | 359 kts | 324° |
| 2026-04-28 05:57 | -7.13378 | 112.85163 | 12073 ft | 371 kts | 307° |
| 2026-04-28 05:57 | -7.12135 | 112.82866 | 12636 ft | 378 kts | 293° |
| 2026-04-28 05:57 | -7.11348 | 112.80379 | 13306 ft | 380 kts | 285° |
| 2026-04-28 05:58 | -7.10803 | 112.77818 | 13956 ft | 382 kts | 282° |
| 2026-04-28 05:58 | -7.10369 | 112.75274 | 14566 ft | 385 kts | 280° |
| 2026-04-28 05:58 | -7.09962 | 112.72688 | 15169 ft | 389 kts | 280° |
| 2026-04-28 05:58 | -7.09546 | 112.70052 | 15777 ft | 391 kts | 281° |
| 2026-04-28 05:59 | -7.09123 | 112.67482 | 16378 ft | 393 kts | 281° |
| 2026-04-28 05:59 | -7.08670 | 112.64834 | 16946 ft | 396 kts | 282° |
| 2026-04-28 05:59 | -7.08196 | 112.62135 | 17500 ft | 399 kts | 282° |
| 2026-04-28 05:59 | -7.07705 | 112.59380 | 18045 ft | 402 kts | 282° |
| 2026-04-28 06:00 | -7.07208 | 112.56631 | 18540 ft | 406 kts | 282° |
| 2026-04-28 06:00 | -7.06699 | 112.53822 | 19064 ft | 409 kts | 282° |
| 2026-04-28 06:00 | -7.06186 | 112.50983 | 19609 ft | 411 kts | 282° |
| 2026-04-28 06:00 | -7.05674 | 112.48143 | 20080 ft | 415 kts | 282° |
| 2026-04-28 06:01 | -7.05158 | 112.45278 | 20563 ft | 418 kts | 282° |
| 2026-04-28 06:01 | -7.04643 | 112.42419 | 21036 ft | 421 kts | 282° |
| 2026-04-28 06:01 | -7.04117 | 112.39497 | 21473 ft | 425 kts | 282° |
| 2026-04-28 06:01 | -7.03591 | 112.36571 | 21911 ft | 428 kts | 282° |
| 2026-04-28 06:02 | -7.03055 | 112.33602 | 22350 ft | 431 kts | 282° |
| 2026-04-28 06:02 | -7.02461 | 112.30652 | 22826 ft | 433 kts | 284° |
| 2026-04-28 06:02 | -7.01661 | 112.27746 | 23211 ft | 436 kts | 289° |
| 2026-04-28 06:02 | -7.00653 | 112.24856 | 23638 ft | 438 kts | 292° |
| 2026-04-28 06:03 | -6.99541 | 112.21994 | 24075 ft | 440 kts | 293° |
| 2026-04-28 06:03 | -6.98381 | 112.19133 | 24527 ft | 442 kts | 294° |
| 2026-04-28 06:03 | -6.97199 | 112.16286 | 24939 ft | 444 kts | 295° |
| 2026-04-28 06:03 | -6.95824 | 112.13499 | 25339 ft | 446 kts | 300° |
| 2026-04-28 06:04 | -6.94247 | 112.10794 | 25736 ft | 449 kts | 303° |
| 2026-04-28 06:04 | -6.92563 | 112.08142 | 26137 ft | 451 kts | 304° |
| 2026-04-28 06:04 | -6.90825 | 112.05511 | 26528 ft | 453 kts | 305° |
| 2026-04-28 06:04 | -6.89073 | 112.02894 | 26909 ft | 456 kts | 304° |
| 2026-04-28 06:05 | -6.87277 | 112.00216 | 27302 ft | 458 kts | 304° |
| 2026-04-28 06:05 | -6.85508 | 111.97572 | 27662 ft | 461 kts | 304° |
| 2026-04-28 06:05 | -6.83727 | 111.94897 | 28038 ft | 463 kts | 304° |
| 2026-04-28 06:05 | -6.81926 | 111.92178 | 28364 ft | 467 kts | 304° |
| 2026-04-28 06:06 | -6.80131 | 111.89459 | 28731 ft | 469 kts | 304° |
| 2026-04-28 06:06 | -6.78329 | 111.86724 | 29069 ft | 471 kts | 304° |
| 2026-04-28 06:06 | -6.76503 | 111.83945 | 29406 ft | 474 kts | 304° |
| 2026-04-28 06:06 | -6.74681 | 111.81168 | 29756 ft | 475 kts | 304° |
| 2026-04-28 06:07 | -6.72889 | 111.78436 | 30331 ft | 471 kts | 304° |
| 2026-04-28 06:07 | -6.71077 | 111.75670 | 30799 ft | 470 kts | 304° |
| 2026-04-28 06:07 | -6.69277 | 111.72923 | 31252 ft | 469 kts | 304° |
| 2026-04-28 06:07 | -6.67490 | 111.70198 | 31677 ft | 468 kts | 304° |
| 2026-04-28 06:08 | -6.65700 | 111.67466 | 32105 ft | 467 kts | 304° |
| 2026-04-28 06:08 | -6.63919 | 111.64749 | 32512 ft | 466 kts | 304° |
| 2026-04-28 06:08 | -6.62157 | 111.62035 | 32952 ft | 465 kts | 303° |
| 2026-04-28 06:08 | -6.60516 | 111.59263 | 33403 ft | 464 kts | 301° |
| 2026-04-28 06:09 | -6.58972 | 111.56424 | 33836 ft | 463 kts | 299° |
| 2026-04-28 06:09 | -6.57494 | 111.53577 | 34276 ft | 461 kts | 298° |
| 2026-04-28 06:09 | -6.56022 | 111.50680 | 34706 ft | 460 kts | 298° |
| 2026-04-28 06:09 | -6.54588 | 111.47843 | 35100 ft | 459 kts | 298° |
| 2026-04-28 06:10 | -6.53129 | 111.44966 | 35475 ft | 458 kts | 298° |
| 2026-04-28 06:10 | -6.51678 | 111.42120 | 35824 ft | 457 kts | 298° |
| 2026-04-28 06:10 | -6.50229 | 111.39294 | 35968 ft | 459 kts | 298° |
| 2026-04-28 06:10 | -6.48749 | 111.36420 | 35964 ft | 459 kts | 298° |
| 2026-04-28 06:11 | -6.45827 | 111.30771 | 35964 ft | 457 kts | 299° |
| 2026-04-28 06:11 | -6.42882 | 111.25099 | 35965 ft | 457 kts | 299° |
| 2026-04-28 06:12 | -6.39928 | 111.19421 | 35965 ft | 456 kts | 299° |
| 2026-04-28 06:12 | -6.36996 | 111.13787 | 35965 ft | 457 kts | 299° |
| 2026-04-28 06:13 | -6.34036 | 111.08139 | 35967 ft | 456 kts | 300° |
| 2026-04-28 06:13 | -6.31034 | 111.02544 | 35966 ft | 456 kts | 300° |
| 2026-04-28 06:14 | -6.28009 | 110.96941 | 35965 ft | 457 kts | 300° |
| 2026-04-28 06:14 | -6.24974 | 110.91316 | 35965 ft | 457 kts | 300° |
| 2026-04-28 06:15 | -6.21966 | 110.85729 | 35965 ft | 456 kts | 300° |
| 2026-04-28 06:15 | -6.18952 | 110.80126 | 35971 ft | 456 kts | 300° |
| 2026-04-28 06:16 | -6.15923 | 110.74495 | 35970 ft | 456 kts | 300° |
| 2026-04-28 06:16 | -6.12917 | 110.68906 | 35974 ft | 456 kts | 300° |
| 2026-04-28 06:17 | -6.09916 | 110.63327 | 35979 ft | 457 kts | 300° |
| 2026-04-28 06:18 | -6.05351 | 110.54845 | 35984 ft | 458 kts | 300° |
| 2026-04-28 06:18 | -6.02335 | 110.49242 | 35984 ft | 458 kts | 300° |
| 2026-04-28 06:19 | -5.99311 | 110.43630 | 35985 ft | 457 kts | 299° |
| 2026-04-28 06:19 | -5.96931 | 110.37702 | 35984 ft | 459 kts | 283° |
| 2026-04-28 06:20 | -5.96319 | 110.31326 | 35984 ft | 461 kts | 272° |
| 2026-04-28 06:20 | -5.96303 | 110.24894 | 35986 ft | 460 kts | 270° |
| 2026-04-28 06:21 | -5.96389 | 110.18458 | 35975 ft | 461 kts | 270° |
| 2026-04-28 06:21 | -5.96451 | 110.12017 | 35962 ft | 462 kts | 270° |
| 2026-04-28 06:22 | -5.96481 | 110.05630 | 35963 ft | 461 kts | 271° |
| 2026-04-28 06:22 | -5.96491 | 109.99186 | 35968 ft | 460 kts | 271° |
| 2026-04-28 06:23 | -5.96492 | 109.92773 | 35964 ft | 460 kts | 271° |
| 2026-04-28 06:23 | -5.96488 | 109.86386 | 35964 ft | 461 kts | 271° |
| 2026-04-28 06:24 | -5.96483 | 109.79967 | 35964 ft | 461 kts | 271° |
| 2026-04-28 06:24 | -5.96477 | 109.73560 | 35964 ft | 460 kts | 271° |
| 2026-04-28 06:25 | -5.96471 | 109.67135 | 35971 ft | 460 kts | 271° |
| 2026-04-28 06:25 | -5.96465 | 109.60683 | 35976 ft | 461 kts | 271° |
| 2026-04-28 06:26 | -5.96457 | 109.54311 | 35978 ft | 460 kts | 271° |
| 2026-04-28 06:26 | -5.96449 | 109.47881 | 35983 ft | 461 kts | 271° |
| 2026-04-28 06:27 | -5.96439 | 109.41438 | 35983 ft | 460 kts | 271° |
| 2026-04-28 06:27 | -5.96430 | 109.35007 | 35983 ft | 461 kts | 271° |
| 2026-04-28 06:28 | -5.96419 | 109.28617 | 35985 ft | 461 kts | 271° |
| 2026-04-28 06:28 | -5.96408 | 109.22200 | 35984 ft | 461 kts | 271° |
| 2026-04-28 06:29 | -5.96395 | 109.15752 | 35984 ft | 461 kts | 271° |
| 2026-04-28 06:29 | -5.96383 | 109.09296 | 35984 ft | 461 kts | 271° |
| 2026-04-28 06:30 | -5.96369 | 109.02883 | 35983 ft | 461 kts | 271° |
| 2026-04-28 06:30 | -5.96354 | 108.96482 | 35984 ft | 460 kts | 271° |
| 2026-04-28 06:31 | -5.96339 | 108.90058 | 35984 ft | 461 kts | 271° |
| 2026-04-28 06:31 | -5.96324 | 108.83618 | 35984 ft | 461 kts | 271° |
| 2026-04-28 06:32 | -5.96307 | 108.77176 | 35984 ft | 461 kts | 271° |
| 2026-04-28 06:32 | -5.96289 | 108.70727 | 35984 ft | 462 kts | 271° |
| 2026-04-28 06:33 | -5.96271 | 108.64272 | 35985 ft | 461 kts | 271° |
| 2026-04-28 06:33 | -5.96252 | 108.57835 | 35984 ft | 461 kts | 271° |
| 2026-04-28 06:34 | -5.96232 | 108.51400 | 35974 ft | 462 kts | 271° |
| 2026-04-28 06:34 | -5.96214 | 108.44994 | 35964 ft | 462 kts | 271° |
| 2026-04-28 06:35 | -5.96206 | 108.38562 | 35964 ft | 461 kts | 271° |
| 2026-04-28 06:35 | -5.96204 | 108.32089 | 35964 ft | 462 kts | 271° |
| 2026-04-28 06:36 | -5.96200 | 108.25641 | 35965 ft | 462 kts | 271° |
| 2026-04-28 06:36 | -5.96194 | 108.19169 | 35963 ft | 463 kts | 271° |
| 2026-04-28 06:36 | -5.96190 | 108.15982 | 35763 ft | 462 kts | 271° |
| 2026-04-28 06:37 | -5.96186 | 108.12761 | 35264 ft | 459 kts | 271° |
| 2026-04-28 06:37 | -5.96182 | 108.09585 | 34602 ft | 458 kts | 271° |
| 2026-04-28 06:37 | -5.96178 | 108.06390 | 33871 ft | 459 kts | 271° |
| 2026-04-28 06:37 | -5.96173 | 108.03154 | 33115 ft | 460 kts | 271° |
| 2026-04-28 06:38 | -5.96168 | 107.99986 | 32377 ft | 461 kts | 271° |
| 2026-04-28 06:38 | -5.96164 | 107.96774 | 31860 ft | 457 kts | 271° |
| 2026-04-28 06:38 | -5.96162 | 107.93611 | 31298 ft | 454 kts | 271° |
| 2026-04-28 06:38 | -5.96161 | 107.90459 | 30722 ft | 453 kts | 270° |
| 2026-04-28 06:39 | -5.96162 | 107.87287 | 30127 ft | 451 kts | 270° |
| 2026-04-28 06:39 | -5.96162 | 107.84186 | 29535 ft | 450 kts | 270° |
| 2026-04-28 06:39 | -5.96163 | 107.81026 | 28940 ft | 448 kts | 270° |
| 2026-04-28 06:39 | -5.96164 | 107.77912 | 28363 ft | 446 kts | 270° |
| 2026-04-28 06:40 | -5.96165 | 107.74824 | 27786 ft | 445 kts | 270° |
| 2026-04-28 06:40 | -5.96166 | 107.71732 | 27203 ft | 444 kts | 270° |
| 2026-04-28 06:40 | -5.96166 | 107.68662 | 26618 ft | 443 kts | 270° |
| 2026-04-28 06:40 | -5.96166 | 107.65577 | 26026 ft | 441 kts | 270° |
| 2026-04-28 06:41 | -5.96166 | 107.62500 | 25441 ft | 440 kts | 269° |
| 2026-04-28 06:41 | -5.96166 | 107.59460 | 24851 ft | 438 kts | 269° |
| 2026-04-28 06:41 | -5.96166 | 107.56417 | 24258 ft | 437 kts | 269° |
| 2026-04-28 06:41 | -5.96165 | 107.53371 | 23664 ft | 435 kts | 269° |
| 2026-04-28 06:42 | -5.96165 | 107.50364 | 23075 ft | 433 kts | 269° |
| 2026-04-28 06:42 | -5.96166 | 107.47344 | 22481 ft | 432 kts | 269° |
| 2026-04-28 06:42 | -5.96166 | 107.44343 | 21869 ft | 423 kts | 269° |
| 2026-04-28 06:42 | -5.96166 | 107.41477 | 21333 ft | 410 kts | 269° |
| 2026-04-28 06:43 | -5.96165 | 107.38654 | 20779 ft | 398 kts | 269° |
| 2026-04-28 06:43 | -5.96165 | 107.35908 | 20235 ft | 387 kts | 269° |
| 2026-04-28 06:43 | -5.96164 | 107.33257 | 19702 ft | 377 kts | 269° |
| 2026-04-28 06:43 | -5.96164 | 107.30652 | 19248 ft | 377 kts | 269° |
| 2026-04-28 06:44 | -5.96162 | 107.27994 | 18734 ft | 380 kts | 269° |
| 2026-04-28 06:44 | -5.96159 | 107.25373 | 18208 ft | 372 kts | 269° |
| 2026-04-28 06:44 | -5.96154 | 107.22813 | 17697 ft | 363 kts | 269° |
| 2026-04-28 06:44 | -5.96150 | 107.20288 | 17200 ft | 369 kts | 269° |
| 2026-04-28 06:45 | -5.96145 | 107.17689 | 16678 ft | 368 kts | 269° |
| 2026-04-28 06:45 | -5.96141 | 107.15162 | 16164 ft | 358 kts | 269° |
| 2026-04-28 06:45 | -5.96136 | 107.12714 | 15670 ft | 352 kts | 269° |
| 2026-04-28 06:45 | -5.96132 | 107.10223 | 15172 ft | 359 kts | 269° |
| 2026-04-28 06:46 | -5.96127 | 107.07719 | 14643 ft | 356 kts | 269° |
| 2026-04-28 06:46 | -5.96122 | 107.05283 | 14168 ft | 347 kts | 269° |
| 2026-04-28 06:46 | -5.96118 | 107.02854 | 13960 ft | 348 kts | 269° |
| 2026-04-28 06:46 | -5.96113 | 107.00392 | 13514 ft | 355 kts | 269° |
| 2026-04-28 06:47 | -5.96108 | 106.97960 | 13017 ft | 346 kts | 269° |
| 2026-04-28 06:47 | -5.96101 | 106.95591 | 12599 ft | 338 kts | 269° |
| 2026-04-28 06:47 | -5.96095 | 106.93212 | 12197 ft | 344 kts | 269° |
| 2026-04-28 06:47 | -5.96089 | 106.90815 | 11709 ft | 340 kts | 269° |
| 2026-04-28 06:48 | -5.96083 | 106.88490 | 11226 ft | 331 kts | 269° |
| 2026-04-28 06:48 | -5.96077 | 106.86169 | 10775 ft | 335 kts | 269° |
| 2026-04-28 06:48 | -5.96070 | 106.83823 | 10350 ft | 331 kts | 269° |
| 2026-04-28 06:48 | -5.96062 | 106.81586 | 10179 ft | 312 kts | 270° |
| 2026-04-28 06:49 | -5.96097 | 106.79488 | 10062 ft | 294 kts | 264° |
| 2026-04-28 06:49 | -5.96460 | 106.77486 | 9863 ft | 288 kts | 251° |
| 2026-04-28 06:49 | -5.97163 | 106.75609 | 9317 ft | 288 kts | 244° |
| 2026-04-28 06:49 | -5.97994 | 106.73769 | 8694 ft | 290 kts | 244° |
| 2026-04-28 06:50 | -5.98812 | 106.71947 | 8175 ft | 287 kts | 245° |
| 2026-04-28 06:50 | -5.99588 | 106.70120 | 7814 ft | 280 kts | 246° |
| 2026-04-28 06:50 | -6.00324 | 106.68325 | 7455 ft | 280 kts | 247° |
| 2026-04-28 06:50 | -6.01067 | 106.66489 | 7098 ft | 280 kts | 247° |
| 2026-04-28 06:51 | -6.01797 | 106.64682 | 6741 ft | 281 kts | 248° |
| 2026-04-28 06:51 | -6.02526 | 106.62876 | 6407 ft | 281 kts | 248° |
| 2026-04-28 06:51 | -6.03264 | 106.61046 | 6136 ft | 277 kts | 248° |
| 2026-04-28 06:51 | -6.03978 | 106.59281 | 6045 ft | 267 kts | 248° |
| 2026-04-28 06:52 | -6.04664 | 106.57591 | 5946 ft | 258 kts | 248° |
| 2026-04-28 06:52 | -6.05336 | 106.55925 | 5802 ft | 252 kts | 248° |
| 2026-04-28 06:52 | -6.05990 | 106.54305 | 5548 ft | 251 kts | 248° |
| 2026-04-28 06:52 | -6.06644 | 106.52677 | 5309 ft | 250 kts | 248° |
| 2026-04-28 06:53 | -6.07296 | 106.51062 | 5047 ft | 249 kts | 248° |
| 2026-04-28 06:53 | -6.07940 | 106.49464 | 4778 ft | 248 kts | 248° |
| 2026-04-28 06:53 | -6.08589 | 106.47852 | 4498 ft | 248 kts | 248° |
| 2026-04-28 06:53 | -6.09231 | 106.46261 | 4299 ft | 245 kts | 248° |
| 2026-04-28 06:54 | -6.09870 | 106.44698 | 4191 ft | 238 kts | 246° |
| 2026-04-28 06:54 | -6.10693 | 106.43265 | 4002 ft | 234 kts | 228° |
| 2026-04-28 06:54 | -6.12038 | 106.42371 | 3709 ft | 233 kts | 192° |
| 2026-04-28 06:54 | -6.13626 | 106.42344 | 3483 ft | 229 kts | 168° |
| 2026-04-28 06:55 | -6.15196 | 106.42693 | 3098 ft | 235 kts | 161° |
| 2026-04-28 06:55 | -6.16696 | 106.43474 | 2397 ft | 251 kts | 134° |
| 2026-04-28 06:55 | -6.17562 | 106.44958 | 2045 ft | 247 kts | 99° |
| 2026-04-28 06:55 | -6.17627 | 106.46627 | 1984 ft | 234 kts | 85° |
| 2026-04-28 06:56 | -6.17506 | 106.48202 | 1979 ft | 221 kts | 84° |
| 2026-04-28 06:56 | -6.17274 | 106.49706 | 1987 ft | 215 kts | 73° |
| 2026-04-28 06:56 | -6.16774 | 106.51112 | 1988 ft | 215 kts | 66° |
| 2026-04-28 06:56 | -6.16177 | 106.52493 | 1993 ft | 208 kts | 66° |
| 2026-04-28 06:57 | -6.15641 | 106.53771 | 1999 ft | 192 kts | 67° |
| 2026-04-28 06:57 | -6.15151 | 106.54990 | 1968 ft | 178 kts | 67° |
| 2026-04-28 06:57 | -6.14690 | 106.56149 | 1744 ft | 179 kts | 67° |
| 2026-04-28 06:57 | -6.14250 | 106.57256 | 1514 ft | 164 kts | 67° |
| 2026-04-28 06:58 | -6.13843 | 106.58282 | 1265 ft | 149 kts | 66° |
| 2026-04-28 06:58 | -6.13466 | 106.59218 | 1069 ft | 143 kts | 66° |
| 2026-04-28 06:58 | -6.13095 | 106.60142 | 895 ft | 143 kts | 67° |
| 2026-04-28 06:58 | -6.12730 | 106.61052 | 704 ft | 138 kts | 66° |
| 2026-04-28 06:59 | -6.12364 | 106.61953 | 547 ft | 139 kts | 66° |
| 2026-04-28 06:59 | -6.12016 | 106.62861 | 436 ft | 140 kts | 67° |
| 2026-04-28 06:59 | -6.11664 | 106.63786 | 241 ft | 141 kts | 67° |
| 2026-04-28 06:59 | -6.11307 | 106.64677 | 57 ft | 131 kts | 66° |
| 2026-04-28 07:00 | -6.11007 | 106.65412 | 46 ft | 95 kts | 68° |
| 2026-04-28 07:00 | -6.10803 | 106.65930 | 46 ft | 59 kts | 67° |
| 2026-04-28 07:00 | -6.10683 | 106.66224 | 46 ft | 33 kts | 69° |
| 2026-04-28 07:00 | -6.10628 | 106.66431 | 46 ft | 27 kts | 89° |
| 2026-04-28 07:01 | -6.10647 | 106.66591 | 46 ft | 16 kts | 101° |
| 2026-04-28 07:01 | -6.10710 | 106.66663 | 46 ft | 11 kts | 158° |
| 2026-04-28 07:01 | -6.10781 | 106.66677 | 46 ft | 9 kts | 208° |
| 2026-04-28 07:01 | -6.10816 | 106.66623 | 46 ft | 9 kts | 249° |
| 2026-04-28 07:02 | -6.10841 | 106.66560 | 46 ft | 10 kts | 249° |
| 2026-04-28 07:02 | -6.10869 | 106.66486 | 46 ft | 12 kts | 249° |
| 2026-04-28 07:02 | -6.10903 | 106.66402 | 46 ft | 14 kts | 247° |
| 2026-04-28 07:02 | -6.10944 | 106.66303 | 46 ft | 16 kts | 248° |
| 2026-04-28 07:03 | -6.10988 | 106.66193 | 46 ft | 18 kts | 249° |
| 2026-04-28 07:03 | -6.11035 | 106.66069 | 46 ft | 19 kts | 249° |
| 2026-04-28 07:03 | -6.11075 | 106.65989 | 46 ft | 8 kts | 238° |
| 2026-04-28 07:03 | -6.11097 | 106.65939 | 46 ft | 7 kts | 252° |
| 2026-04-28 07:04 | -6.11128 | 106.65952 | 46 ft | 8 kts | 130° |
| 2026-04-28 07:04 | -6.11172 | 106.66007 | 46 ft | 12 kts | 129° |
| 2026-04-28 07:04 | -6.11237 | 106.66090 | 46 ft | 16 kts | 111° |
| 2026-04-28 07:04 | -6.11260 | 106.66194 | 46 ft | 14 kts | 99° |
| 2026-04-28 07:05 | -6.11310 | 106.66273 | 46 ft | 13 kts | 162° |
| 2026-04-28 07:05 | -6.11397 | 106.66307 | 46 ft | 13 kts | 158° |
| 2026-04-28 07:05 | -6.11479 | 106.66341 | 46 ft | 12 kts | 157° |
| 2026-04-28 07:05 | -6.11554 | 106.66371 | 46 ft | 11 kts | 158° |
| 2026-04-28 07:06 | -6.11625 | 106.66401 | 46 ft | 10 kts | 149° |
| 2026-04-28 07:06 | -6.11645 | 106.66460 | 46 ft | 8 kts | 81° |
| 2026-04-28 07:06 | -6.11657 | 106.66501 | 46 ft | 5 kts | 144° |
| 2026-04-28 07:06 | -6.11691 | 106.66516 | 46 ft | 4 kts | 157° |
| 2026-04-28 07:07 | -6.11721 | 106.66528 | 46 ft | 4 kts | 157° |
| 2026-04-28 07:07 | -6.11736 | 106.66534 | 46 ft | 0 kts | 158° |